Time;durP1;ratioP1;P1;durP2;ratioP2;P2;SDS_P1;SDS_P2;PMS_P1;PMS_P2;Temp;Humidity;BMP_temperature;BMP_pressure;BME280_temperature;BME280_humidity;BME280_pressure;Samples;Min_cycle;Max_cycle;Signal;HPM_P1;HPM_P2
2024/01/07 00:00:38;;;;;;;4.83;4.33;;;;;;;;;;5038684;28;20214;-68
2024/01/07 00:03:05;;;;;;;4.20;3.80;;;;;;;;;;5045325;28;20206;-67
2024/01/07 00:05:34;;;;;;;4.60;3.90;;;;;;;;;;5043381;28;20199;-68
2024/01/07 00:08:02;;;;;;;4.10;3.70;;;;;;;;;;5045167;28;20302;-63
2024/01/07 00:10:30;;;;;;;4.20;3.80;;;;;;;;;;5041164;28;20212;-63
2024/01/07 00:12:57;;;;;;;4.20;3.80;;;;;;;;;;5040155;28;20215;-63
2024/01/07 00:15:26;;;;;;;4.07;3.63;;;;;;;;;;5048435;28;20199;-62
2024/01/07 00:17:54;;;;;;;3.63;3.33;;;;;;;;;;5043957;28;20203;-63
2024/01/07 00:20:21;;;;;;;5.40;3.57;;;;;;;;;;5047901;28;20265;-63
2024/01/07 00:22:48;;;;;;;4.13;3.73;;;;;;;;;;5045558;28;20210;-62
2024/01/07 00:25:15;;;;;;;3.90;3.50;;;;;;;;;;5046354;28;20204;-64
2024/01/07 00:27:43;;;;;;;3.53;3.23;;;;;;;;;;5040291;28;20195;-62
2024/01/07 00:30:11;;;;;;;3.70;3.33;;;;;;;;;;5047193;28;20210;-64
2024/01/07 00:32:38;;;;;;;3.60;3.30;;;;;;;;;;5040596;28;20215;-62
2024/01/07 00:35:05;;;;;;;3.37;3.07;;;;;;;;;;5041423;28;20207;-62
2024/01/07 00:37:34;;;;;;;2.83;2.63;;;;;;;;;;5040185;28;20707;-62
2024/01/07 00:40:02;;;;;;;3.20;2.90;;;;;;;;;;5039322;28;20204;-63
2024/01/07 00:42:29;;;;;;;3.10;2.87;;;;;;;;;;5040816;28;20204;-62
2024/01/07 00:44:57;;;;;;;3.17;2.80;;;;;;;;;;5042112;28;20206;-65
2024/01/07 00:47:24;;;;;;;3.53;3.00;;;;;;;;;;5042412;28;20196;-63
2024/01/07 00:49:51;;;;;;;3.40;3.10;;;;;;;;;;5039202;28;20208;-64
2024/01/07 00:52:18;;;;;;;3.43;3.13;;;;;;;;;;5042613;28;20227;-63
2024/01/07 00:54:46;;;;;;;3.23;2.93;;;;;;;;;;5044688;28;20215;-63
2024/01/07 00:57:13;;;;;;;3.80;3.40;;;;;;;;;;5045646;28;20195;-63
2024/01/07 00:59:40;;;;;;;3.50;3.20;;;;;;;;;;5048818;28;20203;-63
2024/01/07 01:02:08;;;;;;;3.03;2.73;;;;;;;;;;5048253;28;20199;-63
2024/01/07 01:04:35;;;;;;;3.43;3.13;;;;;;;;;;5044928;28;21669;-64
2024/01/07 01:07:03;;;;;;;3.40;3.10;;;;;;;;;;5049518;28;20199;-63
2024/01/07 01:09:30;;;;;;;3.57;3.27;;;;;;;;;;5044171;28;20205;-63
2024/01/07 01:11:57;;;;;;;3.93;3.53;;;;;;;;;;5047950;28;20215;-63
2024/01/07 01:14:24;;;;;;;3.77;3.33;;;;;;;;;;5045015;28;20214;-63
2024/01/07 01:16:51;;;;;;;3.70;3.40;;;;;;;;;;5048625;28;20299;-62
2024/01/07 01:19:20;;;;;;;3.60;3.30;;;;;;;;;;5046663;28;20211;-63
2024/01/07 01:21:47;;;;;;;5.20;3.60;;;;;;;;;;5043627;28;20238;-63
2024/01/07 01:24:14;;;;;;;3.87;3.50;;;;;;;;;;5042342;28;20204;-63
2024/01/07 01:26:41;;;;;;;3.73;3.43;;;;;;;;;;5041836;28;20204;-63
2024/01/07 01:29:08;;;;;;;4.50;4.07;;;;;;;;;;5043951;28;20203;-63
2024/01/07 01:31:36;;;;;;;4.00;3.60;;;;;;;;;;5042221;28;20294;-63
2024/01/07 01:34:03;;;;;;;4.20;3.80;;;;;;;;;;5042688;28;20204;-64
2024/01/07 01:36:32;;;;;;;4.17;3.77;;;;;;;;;;5046234;28;20210;-63
2024/01/07 01:38:59;;;;;;;4.40;4.00;;;;;;;;;;5042105;28;20250;-64
2024/01/07 01:41:26;;;;;;;4.47;4.07;;;;;;;;;;5048392;28;20200;-63
2024/01/07 01:43:53;;;;;;;4.20;3.80;;;;;;;;;;5034948;28;20216;-65
2024/01/07 01:46:20;;;;;;;4.40;3.93;;;;;;;;;;5029968;28;20211;-63
2024/01/07 01:48:47;;;;;;;4.37;3.97;;;;;;;;;;5041734;28;20206;-63
2024/01/07 01:51:14;;;;;;;4.90;4.40;;;;;;;;;;5042868;28;20206;-63
2024/01/07 01:53:43;;;;;;;4.63;4.20;;;;;;;;;;5040450;28;20226;-63
2024/01/07 01:56:11;;;;;;;4.90;4.40;;;;;;;;;;5040544;28;20265;-63
2024/01/07 01:58:38;;;;;;;4.93;4.23;;;;;;;;;;5042074;28;20204;-63
2024/01/07 02:01:05;;;;;;;5.57;4.93;;;;;;;;;;5038723;28;20210;-62
2024/01/07 02:03:32;;;;;;;5.90;4.30;;;;;;;;;;5041594;28;20201;-63
2024/01/07 02:05:59;;;;;;;5.17;4.67;;;;;;;;;;5040668;28;20200;-62
2024/01/07 02:08:27;;;;;;;5.20;4.70;;;;;;;;;;5040296;28;20209;-63
2024/01/07 02:10:56;;;;;;;6.10;5.00;;;;;;;;;;5039068;28;20208;-64
2024/01/07 02:13:23;;;;;;;5.20;4.70;;;;;;;;;;5040593;28;20224;-63
2024/01/07 02:15:50;;;;;;;4.97;4.43;;;;;;;;;;5042896;28;20212;-63
2024/01/07 02:18:17;;;;;;;5.63;5.03;;;;;;;;;;5042500;28;20237;-63
2024/01/07 02:20:44;;;;;;;5.50;4.80;;;;;;;;;;5040846;28;20220;-63
2024/01/07 02:23:11;;;;;;;5.83;5.23;;;;;;;;;;5042237;28;20203;-63
2024/01/07 02:25:40;;;;;;;5.30;4.80;;;;;;;;;;5039337;28;20199;-63
2024/01/07 02:28:07;;;;;;;5.47;4.97;;;;;;;;;;5044258;28;20212;-63
2024/01/07 02:30:34;;;;;;;5.70;5.10;;;;;;;;;;5038634;28;20265;-64
2024/01/07 02:33:04;;;;;;;5.50;5.00;;;;;;;;;;5043912;28;20293;-62
2024/01/07 02:35:32;;;;;;;6.43;5.30;;;;;;;;;;5042032;28;20203;-63
2024/01/07 02:37:59;;;;;;;5.50;5.00;;;;;;;;;;5043171;28;20243;-62
2024/01/07 02:40:26;;;;;;;5.93;5.37;;;;;;;;;;5042068;28;20230;-62
2024/01/07 02:42:56;;;;;;;5.80;5.20;;;;;;;;;;5038442;28;20192;-62
2024/01/07 02:45:23;;;;;;;5.80;5.17;;;;;;;;;;5042828;28;20227;-63
2024/01/07 02:47:50;;;;;;;5.57;4.93;;;;;;;;;;5035778;28;20223;-63
2024/01/07 02:50:17;;;;;;;5.67;5.17;;;;;;;;;;5039395;28;20200;-63
2024/01/07 02:52:45;;;;;;;5.37;4.87;;;;;;;;;;5038961;28;20219;-62
2024/01/07 02:55:12;;;;;;;6.17;5.47;;;;;;;;;;5043401;28;20204;-64
2024/01/07 02:57:39;;;;;;;5.90;5.23;;;;;;;;;;5038623;28;20207;-65
2024/01/07 03:00:08;;;;;;;6.43;5.47;;;;;;;;;;5037540;28;20200;-65
2024/01/07 03:02:35;;;;;;;5.57;5.07;;;;;;;;;;5037024;28;20278;-63
2024/01/07 03:05:03;;;;;;;6.37;5.47;;;;;;;;;;5041478;28;20234;-63
2024/01/07 03:07:30;;;;;;;6.00;5.40;;;;;;;;;;5037664;28;20207;-65
2024/01/07 03:09:57;;;;;;;5.80;5.20;;;;;;;;;;5047967;28;20204;-63
2024/01/07 03:12:24;;;;;;;6.23;5.57;;;;;;;;;;5037510;28;20315;-63
2024/01/07 03:14:52;;;;;;;6.47;5.47;;;;;;;;;;5042878;28;20238;-63
2024/01/07 03:17:21;;;;;;;6.30;5.53;;;;;;;;;;5041529;28;20212;-63
2024/01/07 03:19:48;;;;;;;6.53;5.93;;;;;;;;;;5045802;28;20338;-62
2024/01/07 03:22:15;;;;;;;5.60;5.10;;;;;;;;;;5042420;28;20202;-63
2024/01/07 03:24:43;;;;;;;6.87;5.70;;;;;;;;;;5035974;28;20213;-65
2024/01/07 03:27:10;;;;;;;6.20;5.60;;;;;;;;;;5039417;28;20246;-63
2024/01/07 03:29:37;;;;;;;6.33;5.73;;;;;;;;;;5045145;28;20231;-62
2024/01/07 03:32:04;;;;;;;5.90;5.37;;;;;;;;;;5040892;28;20196;-63
2024/01/07 03:34:33;;;;;;;5.70;5.20;;;;;;;;;;5042791;28;20219;-63
2024/01/07 03:37:00;;;;;;;6.47;5.87;;;;;;;;;;5037948;28;20200;-64
2024/01/07 03:39:27;;;;;;;6.50;5.90;;;;;;;;;;5037503;28;20243;-63
2024/01/07 03:41:56;;;;;;;6.60;5.93;;;;;;;;;;5025828;28;20215;-64
2024/01/07 03:44:23;;;;;;;6.43;5.77;;;;;;;;;;5028446;28;20196;-63
2024/01/07 03:46:50;;;;;;;6.30;5.67;;;;;;;;;;5020963;28;20210;-63
2024/01/07 03:49:18;;;;;;;6.93;6.03;;;;;;;;;;5039275;28;20221;-63
2024/01/07 03:51:46;;;;;;;6.47;5.87;;;;;;;;;;5042568;28;20258;-62
2024/01/07 03:54:13;;;;;;;6.67;5.97;;;;;;;;;;5037865;28;20227;-61
2024/01/07 03:56:41;;;;;;;7.50;5.73;;;;;;;;;;5038473;28;20200;-63
2024/01/07 03:59:08;;;;;;;6.93;6.20;;;;;;;;;;5040415;28;20215;-62
2024/01/07 04:01:35;;;;;;;6.57;5.97;;;;;;;;;;5037548;28;20211;-63
2024/01/07 04:04:02;;;;;;;6.33;5.73;;;;;;;;;;5037853;28;20199;-63
2024/01/07 04:06:30;;;;;;;6.33;5.73;;;;;;;;;;5041153;28;20204;-63
2024/01/07 04:08:59;;;;;;;6.77;6.07;;;;;;;;;;5037204;28;20883;-63
2024/01/07 04:11:26;;;;;;;6.27;5.67;;;;;;;;;;5041500;28;20213;-64
2024/01/07 04:13:53;;;;;;;7.43;5.93;;;;;;;;;;5038843;28;20230;-62
2024/01/07 04:16:20;;;;;;;6.93;6.23;;;;;;;;;;5044507;28;20205;-62
2024/01/07 04:18:47;;;;;;;6.67;5.97;;;;;;;;;;5041531;28;20210;-62
2024/01/07 04:21:15;;;;;;;6.67;6.00;;;;;;;;;;5038234;28;20595;-62
2024/01/07 04:23:42;;;;;;;8.43;6.03;;;;;;;;;;5038065;28;20603;-63
2024/01/07 04:26:10;;;;;;;7.03;6.33;;;;;;;;;;5039514;28;20207;-62
2024/01/07 04:28:37;;;;;;;6.63;5.93;;;;;;;;;;5041300;28;20204;-63
2024/01/07 04:31:05;;;;;;;6.97;6.27;;;;;;;;;;5036647;28;20203;-62
2024/01/07 04:33:32;;;;;;;7.30;6.57;;;;;;;;;;5039464;28;20215;-63
2024/01/07 04:36:00;;;;;;;6.93;6.23;;;;;;;;;;5039655;28;20218;-63
2024/01/07 04:38:27;;;;;;;7.00;6.03;;;;;;;;;;5044447;28;20235;-63
2024/01/07 04:40:55;;;;;;;7.00;6.30;;;;;;;;;;5038115;28;20204;-63
2024/01/07 04:43:23;;;;;;;6.93;6.23;;;;;;;;;;5038817;28;20195;-63
2024/01/07 04:45:50;;;;;;;7.87;6.50;;;;;;;;;;5040724;28;20204;-62
2024/01/07 04:48:17;;;;;;;7.10;6.40;;;;;;;;;;5044453;28;21379;-69
2024/01/07 04:50:44;;;;;;;7.77;6.67;;;;;;;;;;5039014;28;20212;-68
2024/01/07 04:53:11;;;;;;;7.20;6.50;;;;;;;;;;5044546;28;20223;-69
2024/01/07 04:55:38;;;;;;;7.13;6.13;;;;;;;;;;5041955;28;20215;-68
2024/01/07 04:58:06;;;;;;;7.30;6.27;;;;;;;;;;5042479;28;20204;-70
2024/01/07 05:00:34;;;;;;;6.97;6.13;;;;;;;;;;5044266;28;20214;-70
2024/01/07 05:03:01;;;;;;;7.60;6.50;;;;;;;;;;5039807;28;20205;-69
2024/01/07 05:05:28;;;;;;;7.77;6.87;;;;;;;;;;5039359;28;20230;-69
2024/01/07 05:07:59;;;;;;;6.90;6.20;;;;;;;;;;5046476;28;20210;-68
2024/01/07 05:10:26;;;;;;;7.03;6.33;;;;;;;;;;5043811;28;20281;-68
2024/01/07 05:12:53;;;;;;;8.23;6.37;;;;;;;;;;5040547;28;20220;-69
2024/01/07 05:15:20;;;;;;;7.03;6.20;;;;;;;;;;5039385;28;20203;-68
2024/01/07 05:17:48;;;;;;;6.37;5.77;;;;;;;;;;5048622;28;20212;-68
2024/01/07 05:20:16;;;;;;;6.67;6.07;;;;;;;;;;5041768;28;20257;-67
2024/01/07 05:22:43;;;;;;;7.13;5.97;;;;;;;;;;5046200;28;20203;-68
2024/01/07 05:25:11;;;;;;;6.67;5.70;;;;;;;;;;5040242;28;20263;-68
2024/01/07 05:27:38;;;;;;;6.63;5.90;;;;;;;;;;5037092;28;20282;-68
2024/01/07 05:30:05;;;;;;;7.53;6.20;;;;;;;;;;5039680;28;20209;-67
2024/01/07 05:32:33;;;;;;;6.53;5.77;;;;;;;;;;5040969;28;20196;-69
2024/01/07 05:35:01;;;;;;;7.07;6.07;;;;;;;;;;5039811;28;20227;-68
2024/01/07 05:37:28;;;;;;;6.60;5.77;;;;;;;;;;5043195;28;20316;-68
2024/01/07 05:39:55;;;;;;;6.27;5.63;;;;;;;;;;5040400;28;20223;-66
2024/01/07 05:42:22;;;;;;;7.03;6.13;;;;;;;;;;5028526;28;20208;-68
2024/01/07 05:44:50;;;;;;;6.77;6.07;;;;;;;;;;5025280;28;20203;-68
2024/01/07 05:47:18;;;;;;;8.23;6.57;;;;;;;;;;5029829;28;20223;-68
2024/01/07 05:49:45;;;;;;;7.57;6.63;;;;;;;;;;5037298;28;20205;-68
2024/01/07 05:52:13;;;;;;;6.17;5.57;;;;;;;;;;5041610;28;20206;-70
2024/01/07 05:54:41;;;;;;;6.57;5.83;;;;;;;;;;5041763;28;20228;-68
2024/01/07 05:57:08;;;;;;;5.97;5.37;;;;;;;;;;5041437;28;20208;-63
2024/01/07 05:59:36;;;;;;;7.27;6.10;;;;;;;;;;5041418;28;20223;-69
2024/01/07 06:02:03;;;;;;;7.10;5.90;;;;;;;;;;5040154;28;20230;-69
2024/01/07 06:04:30;;;;;;;7.07;5.90;;;;;;;;;;5041636;28;20204;-68
2024/01/07 06:06:58;;;;;;;7.33;6.00;;;;;;;;;;5042261;28;20212;-69
2024/01/07 06:09:27;;;;;;;8.93;6.50;;;;;;;;;;5042538;28;20346;-69
2024/01/07 06:11:55;;;;;;;8.30;6.17;;;;;;;;;;5040975;28;20199;-67
2024/01/07 06:14:22;;;;;;;7.53;6.43;;;;;;;;;;5042135;28;20219;-68
2024/01/07 06:16:49;;;;;;;7.57;5.53;;;;;;;;;;5044279;28;20208;-69
2024/01/07 06:19:18;;;;;;;6.57;5.70;;;;;;;;;;5040663;28;20203;-68
2024/01/07 06:21:45;;;;;;;5.77;5.17;;;;;;;;;;5038356;28;20196;-70
2024/01/07 06:24:12;;;;;;;6.93;5.93;;;;;;;;;;5037269;28;20200;-69
2024/01/07 06:26:41;;;;;;;7.13;5.70;;;;;;;;;;5040194;28;20222;-66
2024/01/07 06:29:09;;;;;;;6.20;5.40;;;;;;;;;;5038227;28;20203;-70
2024/01/07 06:31:36;;;;;;;7.57;5.50;;;;;;;;;;5042114;28;20195;-68
2024/01/07 06:34:03;;;;;;;6.63;5.40;;;;;;;;;;5038109;28;20227;-69
2024/01/07 06:36:30;;;;;;;6.07;5.47;;;;;;;;;;5037896;28;20211;-68
2024/01/07 06:38:57;;;;;;;6.13;5.53;;;;;;;;;;5040002;28;20235;-68
2024/01/07 06:41:24;;;;;;;7.00;5.83;;;;;;;;;;5040296;28;20204;-69
2024/01/07 06:43:56;;;;;;;5.80;5.20;;;;;;;;;;5043645;28;20199;-70
2024/01/07 06:46:23;;;;;;;5.67;5.00;;;;;;;;;;5041883;28;20226;-67
2024/01/07 06:48:51;;;;;;;6.70;5.87;;;;;;;;;;5036723;28;20214;-69
2024/01/07 06:51:18;;;;;;;7.30;5.83;;;;;;;;;;5040744;28;20210;-68
2024/01/07 06:53:45;;;;;;;6.20;5.50;;;;;;;;;;5046138;28;20221;-70
2024/01/07 06:56:12;;;;;;;6.60;5.47;;;;;;;;;;5040551;28;20200;-68
2024/01/07 06:58:39;;;;;;;6.57;5.27;;;;;;;;;;5037715;28;20262;-69
2024/01/07 07:01:10;;;;;;;5.77;5.17;;;;;;;;;;5037685;28;20294;-70
2024/01/07 07:03:38;;;;;;;6.00;5.30;;;;;;;;;;5038519;28;20267;-71
2024/01/07 07:06:06;;;;;;;6.17;5.57;;;;;;;;;;5039572;28;20195;-69
2024/01/07 07:08:33;;;;;;;5.93;5.33;;;;;;;;;;5039456;28;20213;-64
2024/01/07 07:11:00;;;;;;;5.73;5.03;;;;;;;;;;5040185;28;20288;-63
2024/01/07 07:13:27;;;;;;;6.40;5.17;;;;;;;;;;5039889;28;20207;-65
2024/01/07 07:15:54;;;;;;;5.77;5.10;;;;;;;;;;5038417;28;20196;-63
2024/01/07 07:18:24;;;;;;;6.67;5.97;;;;;;;;;;5039942;28;20230;-63
2024/01/07 07:20:51;;;;;;;6.23;5.13;;;;;;;;;;5038965;28;20215;-63
2024/01/07 07:23:18;;;;;;;6.27;5.23;;;;;;;;;;5044634;28;20210;-63
2024/01/07 07:25:45;;;;;;;6.10;5.40;;;;;;;;;;5040682;28;20200;-64
2024/01/07 07:28:13;;;;;;;5.90;5.30;;;;;;;;;;5042569;28;20216;-63
2024/01/07 07:30:40;;;;;;;5.73;5.13;;;;;;;;;;5037550;28;20204;-65
2024/01/07 07:33:07;;;;;;;6.20;5.50;;;;;;;;;;5043285;28;20203;-64
2024/01/07 07:35:35;;;;;;;6.23;5.50;;;;;;;;;;5040662;28;20222;-63
2024/01/07 07:38:02;;;;;;;6.70;6.00;;;;;;;;;;5038973;28;20227;-63
2024/01/07 07:40:30;;;;;;;6.67;5.87;;;;;;;;;;5043370;28;20214;-63
2024/01/07 07:42:57;;;;;;;5.87;5.07;;;;;;;;;;5035925;28;20205;-64
2024/01/07 07:45:24;;;;;;;6.00;5.33;;;;;;;;;;5044018;28;20202;-63
2024/01/07 07:47:51;;;;;;;10.30;7.70;;;;;;;;;;5042957;28;20212;-64
2024/01/07 07:50:18;;;;;;;10.13;7.93;;;;;;;;;;5040415;28;21430;-63
2024/01/07 07:52:47;;;;;;;11.37;9.47;;;;;;;;;;5039544;28;20200;-64
2024/01/07 07:55:14;;;;;;;10.60;8.70;;;;;;;;;;5040653;28;20231;-63
2024/01/07 07:57:41;;;;;;;8.63;7.20;;;;;;;;;;5043274;28;20219;-63
2024/01/07 08:00:12;;;;;;;8.77;7.30;;;;;;;;;;5040610;28;20222;-64
2024/01/07 08:02:39;;;;;;;11.13;9.17;;;;;;;;;;5042158;28;20203;-63
2024/01/07 08:05:08;;;;;;;14.47;10.47;;;;;;;;;;5042873;28;20258;-63
2024/01/07 08:07:35;;;;;;;9.30;7.10;;;;;;;;;;5041493;28;20204;-64
2024/01/07 08:10:03;;;;;;;12.67;10.37;;;;;;;;;;5045476;28;20214;-63
2024/01/07 08:12:31;;;;;;;8.23;6.77;;;;;;;;;;5049535;28;20234;-64
2024/01/07 08:14:58;;;;;;;6.90;5.97;;;;;;;;;;5038040;28;20254;-63
2024/01/07 08:17:25;;;;;;;7.00;5.80;;;;;;;;;;5039162;28;20204;-63
2024/01/07 08:19:52;;;;;;;6.20;5.30;;;;;;;;;;5036857;28;20203;-70
2024/01/07 08:22:19;;;;;;;5.93;5.30;;;;;;;;;;5042267;28;20211;-70
2024/01/07 08:24:46;;;;;;;5.97;5.20;;;;;;;;;;5046925;28;20202;-70
2024/01/07 08:27:15;;;;;;;6.10;5.17;;;;;;;;;;5044757;28;20207;-68
2024/01/07 08:29:44;;;;;;;5.47;4.97;;;;;;;;;;5046401;28;20215;-69
2024/01/07 08:32:12;;;;;;;5.20;4.60;;;;;;;;;;5043242;28;20507;-70
2024/01/07 08:34:39;;;;;;;5.13;4.63;;;;;;;;;;5044469;28;20250;-70
2024/01/07 08:37:06;;;;;;;4.63;4.23;;;;;;;;;;5040682;28;20207;-70
2024/01/07 08:39:33;;;;;;;5.13;4.63;;;;;;;;;;5037997;28;20232;-68
2024/01/07 08:42:00;;;;;;;4.60;4.20;;;;;;;;;;5041958;28;20212;-67
2024/01/07 08:44:29;;;;;;;4.67;4.17;;;;;;;;;;5046475;28;20203;-67
2024/01/07 08:46:56;;;;;;;5.13;4.20;;;;;;;;;;5046001;28;20200;-69
2024/01/07 08:49:23;;;;;;;4.90;4.40;;;;;;;;;;5048167;28;20201;-69
2024/01/07 08:51:50;;;;;;;4.93;4.43;;;;;;;;;;5041143;28;20208;-68
2024/01/07 08:54:17;;;;;;;5.50;5.00;;;;;;;;;;5039768;28;20212;-67
2024/01/07 08:56:45;;;;;;;4.87;4.37;;;;;;;;;;5045268;28;20200;-69
2024/01/07 08:59:12;;;;;;;5.00;4.50;;;;;;;;;;5045717;28;20200;-68
2024/01/07 09:01:40;;;;;;;3.90;3.60;;;;;;;;;;5049332;28;20219;-69
2024/01/07 09:04:07;;;;;;;4.10;3.80;;;;;;;;;;5048276;28;20200;-69
2024/01/07 09:06:34;;;;;;;4.30;3.90;;;;;;;;;;5042345;28;20199;-67
2024/01/07 09:09:01;;;;;;;4.30;3.70;;;;;;;;;;5039341;28;20223;-69
2024/01/07 09:11:28;;;;;;;3.87;3.57;;;;;;;;;;5048011;28;20203;-70
2024/01/07 09:13:56;;;;;;;3.70;3.40;;;;;;;;;;5046224;28;20214;-70
2024/01/07 09:16:23;;;;;;;3.97;3.57;;;;;;;;;;5038071;28;20211;-69
2024/01/07 09:18:51;;;;;;;4.53;4.03;;;;;;;;;;5038404;28;20211;-68
2024/01/07 09:21:18;;;;;;;4.50;4.10;;;;;;;;;;5048951;28;20200;-69
2024/01/07 09:23:46;;;;;;;4.43;4.03;;;;;;;;;;5048306;28;20217;-70
2024/01/07 09:26:13;;;;;;;3.67;3.37;;;;;;;;;;5048897;28;20566;-69
2024/01/07 09:28:42;;;;;;;4.40;4.00;;;;;;;;;;5046860;28;20207;-63
2024/01/07 09:31:09;;;;;;;3.67;3.37;;;;;;;;;;5042659;28;20214;-63
2024/01/07 09:33:36;;;;;;;3.00;2.77;;;;;;;;;;5045646;28;20235;-63
2024/01/07 09:36:05;;;;;;;3.07;2.87;;;;;;;;;;5050925;28;20208;-63
2024/01/07 09:38:32;;;;;;;3.00;2.80;;;;;;;;;;5043593;28;20228;-64
2024/01/07 09:40:59;;;;;;;3.67;3.37;;;;;;;;;;5047096;28;20210;-63
2024/01/07 09:43:26;;;;;;;3.90;3.60;;;;;;;;;;5044303;28;20286;-64
2024/01/07 09:45:53;;;;;;;3.03;2.83;;;;;;;;;;5043439;28;20211;-63
2024/01/07 09:48:20;;;;;;;2.40;2.27;;;;;;;;;;5041008;28;20207;-62
2024/01/07 09:50:47;;;;;;;4.10;2.47;;;;;;;;;;5046113;28;20219;-63
2024/01/07 09:53:17;;;;;;;2.77;2.57;;;;;;;;;;5040629;28;20208;-64
2024/01/07 09:55:49;;;;;;;2.50;2.30;;;;;;;;;;5039772;28;20207;-62
2024/01/07 09:58:16;;;;;;;2.43;2.23;;;;;;;;;;5043074;28;20199;-63
2024/01/07 10:00:43;;;;;;;2.37;2.17;;;;;;;;;;5042366;28;20205;-62
2024/01/07 10:03:11;;;;;;;2.17;2.07;;;;;;;;;;5045046;28;20210;-64
2024/01/07 10:05:38;;;;;;;2.50;2.30;;;;;;;;;;5044506;28;20203;-64
2024/01/07 10:08:06;;;;;;;2.93;2.70;;;;;;;;;;5049941;28;20195;-63
2024/01/07 10:10:36;;;;;;;2.60;2.40;;;;;;;;;;5044274;28;20207;-63
2024/01/07 10:13:04;;;;;;;2.50;2.30;;;;;;;;;;5045044;28;20218;-63
2024/01/07 10:15:31;;;;;;;2.43;2.20;;;;;;;;;;5046058;28;20224;-63
2024/01/07 10:18:05;;;;;;;2.10;2.00;;;;;;;;;;5042886;28;20207;-63
2024/01/07 10:20:33;;;;;;;3.07;2.30;;;;;;;;;;5043432;28;20202;-63
2024/01/07 10:23:02;;;;;;;2.53;2.33;;;;;;;;;;5040439;28;20235;-63
2024/01/07 10:25:30;;;;;;;2.90;2.70;;;;;;;;;;5035866;28;21283;-64
2024/01/07 10:28:02;;;;;;;4.47;3.40;;;;;;;;;;5042484;28;20302;-63
2024/01/07 10:30:29;;;;;;;2.70;2.50;;;;;;;;;;5040628;28;20223;-64
2024/01/07 10:32:59;;;;;;;2.70;2.50;;;;;;;;;;5039387;28;20218;-63
2024/01/07 10:35:30;;;;;;;2.87;2.67;;;;;;;;;;5040691;28;20220;-63
2024/01/07 10:37:57;;;;;;;2.77;2.30;;;;;;;;;;5035132;28;20301;-67
2024/01/07 10:40:25;;;;;;;2.50;2.30;;;;;;;;;;5031921;28;20216;-70
2024/01/07 10:42:52;;;;;;;2.57;2.37;;;;;;;;;;5040026;28;20218;-68
2024/01/07 10:45:21;;;;;;;2.77;2.57;;;;;;;;;;5039537;28;20299;-69
2024/01/07 10:47:51;;;;;;;2.50;2.30;;;;;;;;;;5032338;28;20218;-69
2024/01/07 10:50:18;;;;;;;2.87;2.67;;;;;;;;;;5030940;28;20245;-69
2024/01/07 10:52:50;;;;;;;2.57;2.37;;;;;;;;;;5038371;28;20211;-69
2024/01/07 10:55:19;;;;;;;3.40;3.07;;;;;;;;;;5034614;28;20277;-68
2024/01/07 10:57:47;;;;;;;2.70;2.50;;;;;;;;;;5034792;28;20211;-69
2024/01/07 11:00:18;;;;;;;2.60;2.40;;;;;;;;;;5032043;28;20242;-68
2024/01/07 11:02:51;;;;;;;2.60;2.40;;;;;;;;;;5040599;28;20199;-68
2024/01/07 11:05:21;;;;;;;2.83;2.17;;;;;;;;;;5040652;28;20294;-68
2024/01/07 11:07:54;;;;;;;2.40;2.20;;;;;;;;;;5040391;28;20217;-67
2024/01/07 11:10:23;;;;;;;2.57;2.37;;;;;;;;;;5037235;28;20208;-69
2024/01/07 11:12:55;;;;;;;7.27;5.00;;;;;;;;;;5030543;28;20199;-68
2024/01/07 11:15:37;;;;;;;3.90;3.50;;;;;;;;;;5033888;28;20220;-67
2024/01/07 11:18:07;;;;;;;2.73;2.53;;;;;;;;;;5029932;28;20207;-68
2024/01/07 11:20:35;;;;;;;3.17;2.87;;;;;;;;;;5042714;28;20239;-67
2024/01/07 11:23:17;;;;;;;3.37;3.07;;;;;;;;;;5037432;28;20237;-67
2024/01/07 11:25:44;;;;;;;4.00;3.60;;;;;;;;;;5037238;28;20196;-67
2024/01/07 11:28:14;;;;;;;3.97;3.57;;;;;;;;;;5039766;28;20215;-67
2024/01/07 11:30:41;;;;;;;5.70;4.73;;;;;;;;;;5037289;28;20199;-68
2024/01/07 11:33:15;;;;;;;5.30;4.80;;;;;;;;;;5043596;28;20203;-68
2024/01/07 11:35:56;;;;;;;4.70;4.30;;;;;;;;;;5040690;28;20226;-68
2024/01/07 11:38:23;;;;;;;4.90;4.50;;;;;;;;;;5038127;28;20262;-67
2024/01/07 11:40:51;;;;;;;5.30;4.80;;;;;;;;;;5032467;28;20214;-68
2024/01/07 11:43:18;;;;;;;5.10;4.60;;;;;;;;;;5048103;28;20206;-67
2024/01/07 11:45:45;;;;;;;6.23;5.63;;;;;;;;;;5038019;28;20269;-67
2024/01/07 11:48:14;;;;;;;5.93;5.33;;;;;;;;;;5038800;28;20218;-62
2024/01/07 11:50:41;;;;;;;5.83;5.23;;;;;;;;;;5046373;28;20207;-63
2024/01/07 11:53:09;;;;;;;5.70;5.17;;;;;;;;;;5037536;28;20204;-63
2024/01/07 11:55:36;;;;;;;5.83;5.20;;;;;;;;;;5035455;28;20309;-62
2024/01/07 11:58:04;;;;;;;6.27;5.67;;;;;;;;;;5034810;28;20209;-64
2024/01/07 12:00:33;;;;;;;6.27;5.67;;;;;;;;;;5035521;28;20207;-63
2024/01/07 12:03:00;;;;;;;6.33;5.73;;;;;;;;;;5032774;28;20211;-63
2024/01/07 12:05:28;;;;;;;6.60;5.90;;;;;;;;;;5040083;28;20243;-62
2024/01/07 12:07:56;;;;;;;6.10;5.50;;;;;;;;;;5040829;28;20215;-62
2024/01/07 12:10:24;;;;;;;6.13;5.53;;;;;;;;;;5040682;28;20482;-63
2024/01/07 12:12:51;;;;;;;6.87;5.97;;;;;;;;;;5035445;28;20215;-63
2024/01/07 12:15:19;;;;;;;6.60;5.63;;;;;;;;;;5042055;28;20246;-62
2024/01/07 12:17:57;;;;;;;6.60;5.90;;;;;;;;;;5037137;28;20203;-61
2024/01/07 12:20:24;;;;;;;6.57;5.87;;;;;;;;;;5037689;28;20207;-63
2024/01/07 12:22:52;;;;;;;6.90;6.20;;;;;;;;;;5039114;28;20217;-63
2024/01/07 12:25:23;;;;;;;6.33;5.73;;;;;;;;;;5037950;28;20200;-64
2024/01/07 12:27:52;;;;;;;7.57;6.10;;;;;;;;;;5038173;28;20203;-62
2024/01/07 12:30:20;;;;;;;7.70;6.20;;;;;;;;;;5036507;28;20214;-62
2024/01/07 12:32:47;;;;;;;7.80;7.00;;;;;;;;;;5041883;28;21526;-64
2024/01/07 12:35:14;;;;;;;6.97;6.27;;;;;;;;;;5034910;28;20211;-62
2024/01/07 12:37:41;;;;;;;8.00;6.93;;;;;;;;;;5041356;28;20231;-62
2024/01/07 12:40:11;;;;;;;7.57;6.53;;;;;;;;;;5036924;28;20204;-63
2024/01/07 12:42:39;;;;;;;6.87;6.27;;;;;;;;;;5042274;28;20210;-62
2024/01/07 12:45:07;;;;;;;7.33;6.57;;;;;;;;;;5040947;28;20200;-63
2024/01/07 12:47:34;;;;;;;8.20;7.10;;;;;;;;;;5038458;28;20208;-63
2024/01/07 12:50:01;;;;;;;7.77;6.87;;;;;;;;;;5034139;28;20292;-63
2024/01/07 12:52:29;;;;;;;8.40;7.57;;;;;;;;;;5035495;28;20204;-63
2024/01/07 12:54:56;;;;;;;8.00;7.20;;;;;;;;;;5036565;28;20199;-64
2024/01/07 12:57:25;;;;;;;8.43;7.53;;;;;;;;;;5042058;28;20298;-62
2024/01/07 12:59:52;;;;;;;8.20;7.23;;;;;;;;;;5032234;28;20198;-70
2024/01/07 13:02:18;;;;;;;8.13;7.03;;;;;;;;;;5041764;28;20206;-69
2024/01/07 13:04:46;;;;;;;8.30;7.40;;;;;;;;;;5032507;28;20210;-68
2024/01/07 13:07:13;;;;;;;8.70;7.10;;;;;;;;;;5030613;28;20207;-68
2024/01/07 13:09:40;;;;;;;8.80;7.43;;;;;;;;;;5042342;28;20231;-67
2024/01/07 13:12:07;;;;;;;8.90;7.60;;;;;;;;;;5036575;28;20219;-69
2024/01/07 13:14:36;;;;;;;10.40;8.53;;;;;;;;;;5049769;28;20210;-68
2024/01/07 13:17:03;;;;;;;10.03;8.03;;;;;;;;;;5039832;28;20219;-69
2024/01/07 13:19:31;;;;;;;9.37;7.80;;;;;;;;;;5041549;28;20207;-69
2024/01/07 13:21:59;;;;;;;8.93;7.70;;;;;;;;;;5044485;28;20204;-69
2024/01/07 13:24:26;;;;;;;8.50;7.33;;;;;;;;;;5046344;28;20219;-67
2024/01/07 13:26:53;;;;;;;8.67;7.40;;;;;;;;;;5039019;28;20204;-67
2024/01/07 13:29:20;;;;;;;7.40;6.70;;;;;;;;;;5041028;28;20199;-68
2024/01/07 13:31:49;;;;;;;8.90;7.73;;;;;;;;;;5039942;28;20236;-68
2024/01/07 13:34:16;;;;;;;10.20;8.43;;;;;;;;;;5041145;28;20204;-70
2024/01/07 13:36:43;;;;;;;10.63;7.47;;;;;;;;;;5046432;28;20230;-67
2024/01/07 13:39:10;;;;;;;10.90;9.60;;;;;;;;;;5035125;28;20303;-70
2024/01/07 13:41:38;;;;;;;9.47;8.27;;;;;;;;;;5042011;28;20210;-69
2024/01/07 13:44:07;;;;;;;9.30;7.80;;;;;;;;;;5038487;28;20214;-70
2024/01/07 13:46:34;;;;;;;8.10;7.30;;;;;;;;;;5038112;28;20203;-70
2024/01/07 13:49:02;;;;;;;9.33;8.33;;;;;;;;;;5041372;28;20229;-70
2024/01/07 13:51:29;;;;;;;9.23;8.33;;;;;;;;;;5042053;28;20298;-69
2024/01/07 13:53:57;;;;;;;8.90;8.00;;;;;;;;;;5033326;28;20204;-68
2024/01/07 13:56:26;;;;;;;8.67;7.77;;;;;;;;;;5035468;28;20231;-70
2024/01/07 13:58:54;;;;;;;9.60;8.17;;;;;;;;;;5042535;28;20261;-69
2024/01/07 14:01:21;;;;;;;8.70;7.80;;;;;;;;;;5044007;28;20215;-69
2024/01/07 14:03:48;;;;;;;10.53;8.70;;;;;;;;;;5044143;28;20211;-68
2024/01/07 14:06:17;;;;;;;9.00;8.10;;;;;;;;;;5048526;28;20222;-68
2024/01/07 14:08:44;;;;;;;9.43;7.97;;;;;;;;;;5044922;28;20203;-69
2024/01/07 14:11:11;;;;;;;8.50;7.60;;;;;;;;;;5043411;28;20208;-67
2024/01/07 14:13:39;;;;;;;8.57;7.70;;;;;;;;;;5041378;28;20215;-67
2024/01/07 14:16:07;;;;;;;10.17;8.53;;;;;;;;;;5048136;28;20312;-70
2024/01/07 14:18:34;;;;;;;10.27;8.83;;;;;;;;;;5036881;28;20240;-68
2024/01/07 14:21:01;;;;;;;9.83;8.33;;;;;;;;;;5041725;28;20210;-70
2024/01/07 14:23:31;;;;;;;10.43;8.97;;;;;;;;;;5046137;28;20201;-69
2024/01/07 14:25:58;;;;;;;9.73;8.57;;;;;;;;;;5043282;28;20199;-66
2024/01/07 14:28:25;;;;;;;10.73;9.63;;;;;;;;;;5041845;28;20207;-68
2024/01/07 14:30:52;;;;;;;10.93;9.37;;;;;;;;;;5038938;28;20243;-68
2024/01/07 14:33:19;;;;;;;9.53;8.53;;;;;;;;;;5044039;28;20212;-67
2024/01/07 14:35:46;;;;;;;11.00;9.90;;;;;;;;;;5044521;28;20204;-68
2024/01/07 14:38:13;;;;;;;11.93;10.73;;;;;;;;;;5046953;28;20227;-69
2024/01/07 14:40:46;;;;;;;12.80;11.10;;;;;;;;;;5044874;28;20798;-70
2024/01/07 14:43:13;;;;;;;12.13;9.90;;;;;;;;;;5043152;28;20200;-70
2024/01/07 14:45:40;;;;;;;11.03;9.73;;;;;;;;;;5048368;28;20201;-69